createdAt,value
2019-05-18T00:00:42.813Z,12.58
2019-05-18T00:01:42.797Z,12.75
2019-05-18T00:02:42.777Z,12.65
2019-05-18T00:03:42.760Z,12.61
2019-05-18T00:04:42.744Z,12.63
2019-05-18T00:05:42.708Z,12.58
2019-05-18T00:06:42.692Z,12.58
2019-05-18T00:07:42.671Z,12.61
2019-05-18T00:08:42.646Z,12.63
2019-05-18T00:09:42.629Z,12.53
2019-05-18T00:10:42.602Z,12.55
2019-05-18T00:11:42.584Z,12.48
2019-05-18T00:12:42.568Z,12.50
2019-05-18T00:13:42.538Z,12.48
2019-05-18T00:14:42.526Z,12.43
2019-05-18T00:15:42.503Z,12.50
2019-05-18T00:16:42.486Z,12.40
2019-05-18T00:17:42.453Z,12.40
2019-05-18T00:18:42.437Z,12.36
2019-05-18T00:19:42.412Z,12.37
2019-05-18T00:20:42.398Z,12.36
2019-05-18T00:21:42.382Z,12.37
2019-05-18T00:22:42.396Z,12.40
2019-05-18T00:23:42.329Z,12.40
2019-05-18T00:24:42.309Z,12.37
2019-05-18T00:25:42.287Z,12.30
2019-05-18T00:26:42.265Z,12.32
2019-05-18T00:27:42.256Z,12.36
2019-05-18T00:28:42.228Z,12.30
2019-05-18T00:29:42.202Z,12.35
2019-05-18T00:30:42.188Z,12.35
2019-05-18T00:31:42.159Z,12.32
2019-05-18T00:32:42.286Z,12.37
2019-05-18T00:33:42.115Z,12.33
2019-05-18T00:34:42.092Z,12.29
2019-05-18T00:35:42.072Z,12.35
2019-05-18T00:36:42.050Z,12.29
2019-05-18T00:37:42.034Z,12.21
2019-05-18T00:38:42.022Z,12.21
2019-05-18T00:39:41.999Z,12.29
2019-05-18T00:40:41.973Z,12.25
2019-05-18T00:41:45.240Z,12.23
2019-05-18T00:42:41.934Z,12.14
2019-05-18T00:43:41.910Z,12.26
2019-05-18T00:44:41.880Z,12.33
2019-05-18T00:45:41.860Z,12.28
2019-05-18T00:46:41.837Z,12.21
2019-05-18T00:47:42.377Z,12.18
2019-05-18T00:48:41.795Z,12.20
2019-05-18T00:49:41.772Z,12.12
2019-05-18T00:50:41.752Z,12.26
2019-05-18T00:51:41.734Z,12.18
2019-05-18T00:52:41.709Z,12.23
2019-05-18T00:53:41.695Z,12.18
2019-05-18T00:54:41.673Z,12.14
2019-05-18T00:55:41.647Z,12.17
2019-05-18T00:56:41.642Z,12.12
2019-05-18T00:57:41.603Z,12.07
2019-05-18T00:58:41.580Z,11.99
2019-05-18T00:59:41.559Z,11.96
2019-05-18T01:00:41.537Z,11.91
2019-05-18T01:01:41.517Z,11.83
2019-05-18T01:02:41.497Z,11.81
2019-05-18T01:03:41.474Z,11.83
2019-05-18T01:04:41.451Z,11.91
2019-05-18T01:05:42.643Z,11.80
2019-05-18T01:06:41.416Z,11.83
2019-05-18T01:07:41.387Z,11.77
2019-05-18T01:08:41.364Z,11.86
2019-05-18T01:09:41.354Z,11.80
2019-05-18T01:10:41.369Z,11.78
2019-05-18T01:11:41.301Z,11.83
2019-05-18T01:12:41.292Z,11.62
2019-05-18T01:13:41.257Z,11.74
2019-05-18T01:14:41.237Z,11.73
2019-05-18T01:15:41.267Z,11.78
2019-05-18T01:16:41.197Z,11.71
2019-05-18T01:17:56.163Z,11.74
2019-05-18T01:18:41.154Z,11.78
2019-05-18T01:19:41.138Z,11.78
2019-05-18T01:20:41.116Z,11.77
2019-05-18T01:21:41.084Z,11.70
2019-05-18T01:22:41.064Z,11.73
2019-05-18T01:23:41.053Z,11.77
2019-05-18T01:24:41.026Z,11.80
2019-05-18T01:25:41.006Z,11.70
2019-05-18T01:26:40.975Z,11.71
2019-05-18T01:27:40.962Z,11.78
2019-05-18T01:28:40.934Z,11.86
2019-05-18T01:29:40.918Z,11.80
2019-05-18T01:30:40.889Z,11.74
2019-05-18T01:31:40.869Z,11.86
2019-05-18T01:32:40.846Z,11.83
2019-05-18T01:33:40.824Z,11.81
2019-05-18T01:34:40.804Z,11.88
2019-05-18T01:35:40.782Z,11.80
2019-05-18T01:36:40.759Z,11.85
2019-05-18T01:37:40.739Z,11.85
2019-05-18T01:38:40.716Z,11.86
2019-05-18T01:39:40.695Z,11.73
2019-05-18T01:40:40.688Z,11.73
2019-05-18T01:41:40.654Z,11.73
2019-05-18T01:42:40.631Z,11.78
2019-05-18T01:43:40.606Z,11.74
2019-05-18T01:44:40.588Z,11.77
2019-05-18T01:45:40.566Z,11.67
2019-05-18T01:46:40.549Z,11.63
2019-05-18T01:47:40.526Z,11.62
2019-05-18T01:48:40.497Z,11.73
2019-05-18T01:49:40.515Z,11.80
2019-05-18T01:50:40.455Z,11.63
2019-05-18T01:51:40.442Z,11.68
2019-05-18T01:52:40.420Z,11.65
2019-05-18T01:53:40.388Z,11.60
2019-05-18T01:54:40.376Z,11.56
2019-05-18T01:55:40.353Z,11.60
2019-05-18T01:56:40.322Z,11.65
2019-05-18T01:57:40.301Z,11.77
2019-05-18T01:58:40.280Z,11.63
2019-05-18T01:59:40.259Z,11.65
2019-05-18T02:00:40.390Z,11.67
2019-05-18T02:01:40.215Z,11.70
2019-05-18T02:02:40.201Z,11.62
2019-05-18T02:03:40.171Z,11.67
2019-05-18T02:04:40.148Z,11.52
2019-05-18T02:05:40.129Z,11.59
2019-05-18T02:06:40.106Z,11.45
2019-05-18T02:07:40.084Z,11.48
2019-05-18T02:08:40.062Z,11.44
2019-05-18T02:09:40.039Z,11.37
2019-05-18T02:10:40.034Z,11.38
2019-05-18T02:11:40.008Z,11.26
2019-05-18T02:12:39.973Z,11.30
2019-05-18T02:13:39.955Z,11.16
2019-05-18T02:14:39.933Z,11.22
2019-05-18T02:15:39.909Z,11.22
2019-05-18T02:16:39.885Z,11.15
2019-05-18T02:17:39.864Z,11.13
2019-05-18T02:18:39.841Z,11.07
2019-05-18T02:19:39.821Z,11.02
2019-05-18T02:20:39.797Z,11.00
2019-05-18T02:21:39.784Z,11.07
2019-05-18T02:22:39.763Z,11.00
2019-05-18T02:23:39.750Z,11.08
2019-05-18T02:24:39.709Z,11.12
2019-05-18T02:25:39.688Z,11.05
2019-05-18T02:26:39.665Z,11.01
2019-05-18T02:27:39.677Z,11.13
2019-05-18T02:28:39.620Z,11.15
2019-05-18T02:29:39.597Z,11.13
2019-05-18T02:30:39.582Z,11.23
2019-05-18T02:31:39.565Z,11.08
2019-05-18T02:32:39.534Z,11.23
2019-05-18T02:33:39.519Z,11.27
2019-05-18T02:34:39.491Z,11.20
2019-05-18T02:35:39.467Z,11.19
2019-05-18T02:36:39.451Z,11.23
2019-05-18T02:37:39.421Z,11.16
2019-05-18T02:38:39.402Z,11.20
2019-05-18T02:39:39.377Z,11.10
2019-05-18T02:40:39.356Z,11.12
2019-05-18T02:41:39.332Z,11.15
2019-05-18T02:42:39.316Z,11.10
2019-05-18T02:43:39.290Z,11.08
2019-05-18T02:44:39.267Z,11.04
2019-05-18T02:45:39.244Z,11.13
2019-05-18T02:46:39.223Z,11.23
2019-05-18T02:47:39.203Z,11.12
2019-05-18T02:48:49.631Z,11.18
2019-05-18T02:49:39.157Z,11.23
2019-05-18T02:50:39.132Z,11.15
2019-05-18T02:51:39.116Z,11.15
2019-05-18T02:52:39.088Z,11.05
2019-05-18T02:53:39.066Z,11.01
2019-05-18T02:54:39.051Z,11.01
2019-05-18T02:55:39.024Z,11.01
2019-05-18T02:56:39.015Z,11.00
2019-05-18T02:57:38.978Z,11.08
2019-05-18T02:58:38.955Z,11.01
2019-05-18T02:59:38.935Z,11.02
2019-05-18T03:00:38.914Z,11.02
2019-05-18T03:01:38.894Z,10.98
2019-05-18T03:02:38.869Z,10.98
2019-05-18T03:03:38.846Z,11.04
2019-05-18T03:04:38.834Z,11.02
2019-05-18T03:05:38.801Z,11.04
2019-05-18T03:06:38.784Z,11.01
2019-05-18T03:07:38.761Z,11.02
2019-05-18T03:08:38.733Z,11.00
2019-05-18T03:09:38.713Z,10.95
2019-05-18T03:10:38.697Z,10.86
2019-05-18T03:11:38.668Z,10.89
2019-05-18T03:12:38.646Z,10.83
2019-05-18T03:13:38.625Z,10.89
2019-05-18T03:14:38.668Z,10.84
2019-05-18T03:15:38.597Z,10.80
2019-05-18T03:16:38.558Z,10.83
2019-05-18T03:17:38.539Z,10.79
2019-05-18T03:18:38.515Z,10.89
2019-05-18T03:19:38.515Z,10.77
2019-05-18T03:20:38.504Z,10.90
2019-05-18T03:21:38.443Z,10.90
2019-05-18T03:22:38.424Z,10.87
2019-05-18T03:23:38.452Z,10.84
2019-05-18T03:24:38.384Z,10.86
2019-05-18T03:25:38.356Z,10.79
2019-05-18T03:26:38.341Z,10.77
2019-05-18T03:27:38.321Z,10.79
2019-05-18T03:28:38.304Z,10.75
2019-05-18T03:29:38.262Z,10.80
2019-05-18T03:30:38.265Z,10.72
2019-05-18T03:31:38.224Z,10.72
2019-05-18T03:32:38.207Z,10.69
2019-05-18T03:33:38.175Z,10.65
2019-05-18T03:34:38.153Z,10.75
2019-05-18T03:35:38.157Z,10.75
2019-05-18T03:36:38.112Z,10.67
2019-05-18T03:37:38.089Z,10.71
2019-05-18T03:38:38.064Z,10.61
2019-05-18T03:39:38.049Z,10.65
2019-05-18T03:40:38.021Z,10.61
2019-05-18T03:41:38.001Z,10.68
2019-05-18T03:42:37.990Z,10.72
2019-05-18T03:43:37.949Z,10.69
2019-05-18T03:44:37.925Z,10.72
2019-05-18T03:45:37.912Z,10.86
2019-05-18T03:46:37.883Z,10.89
2019-05-18T03:47:37.859Z,10.86
2019-05-18T03:48:37.836Z,10.86
2019-05-18T03:49:37.813Z,10.92
2019-05-18T03:50:37.793Z,10.89
2019-05-18T03:51:37.772Z,10.86
2019-05-18T03:52:37.749Z,10.84
2019-05-18T03:53:37.725Z,10.87
2019-05-18T03:54:37.704Z,10.82
2019-05-18T03:55:37.691Z,10.89
2019-05-18T03:56:37.658Z,10.83
2019-05-18T03:57:37.643Z,10.80
2019-05-18T03:58:37.621Z,10.82
2019-05-18T03:59:37.597Z,10.79
2019-05-18T04:00:37.575Z,10.79
2019-05-18T04:01:37.547Z,10.75
2019-05-18T04:02:37.526Z,10.71
2019-05-18T04:03:37.504Z,10.80
2019-05-18T04:04:37.479Z,10.82
2019-05-18T04:05:37.463Z,10.83
2019-05-18T04:06:37.434Z,10.87
2019-05-18T04:07:37.410Z,10.89
2019-05-18T04:08:37.461Z,10.86
2019-05-18T04:09:37.517Z,10.83
2019-05-18T04:10:37.348Z,10.87
2019-05-18T04:11:37.328Z,10.98
2019-05-18T04:12:37.300Z,10.86
2019-05-18T04:13:37.287Z,10.92
2019-05-18T04:14:37.257Z,10.89
2019-05-18T04:15:37.233Z,10.87
2019-05-18T04:16:37.210Z,10.89
2019-05-18T04:17:37.191Z,11.00
2019-05-18T04:19:46.155Z,11.10
2019-05-18T04:20:37.129Z,11.15
2019-05-18T04:21:37.418Z,11.12
2019-05-18T04:22:37.092Z,11.10
2019-05-18T04:23:37.054Z,11.02
2019-05-18T04:24:37.033Z,11.10
2019-05-18T04:25:37.009Z,11.15
2019-05-18T04:26:36.990Z,11.08
2019-05-18T04:27:36.966Z,11.04
2019-05-18T04:28:36.941Z,11.04
2019-05-18T04:29:37.246Z,11.07
2019-05-18T04:30:36.917Z,11.07
2019-05-18T04:31:36.932Z,11.13
2019-05-18T04:32:36.884Z,11.10
2019-05-18T04:33:37.159Z,11.02
2019-05-18T04:34:36.814Z,11.08
2019-05-18T04:35:39.838Z,11.19
2019-05-18T04:36:37.084Z,11.16
2019-05-18T04:37:37.063Z,11.19
2019-05-18T04:38:36.734Z,11.27
2019-05-18T04:39:36.911Z,11.38
2019-05-18T04:40:37.280Z,11.35
2019-05-18T04:41:37.383Z,11.40
2019-05-18T04:42:36.961Z,11.31
2019-05-18T04:43:36.641Z,11.20
2019-05-18T04:44:36.817Z,11.05
2019-05-18T04:45:36.595Z,11.10
2019-05-18T04:46:36.576Z,11.20
2019-05-18T04:47:36.548Z,11.10
2019-05-18T04:48:37.028Z,11.22
2019-05-18T04:49:36.475Z,11.30
2019-05-18T04:50:36.779Z,11.40
2019-05-18T04:51:36.455Z,11.37
2019-05-18T04:52:36.413Z,11.40
2019-05-18T04:53:36.392Z,11.53
2019-05-18T04:54:36.412Z,11.53
2019-05-18T04:55:36.563Z,11.56
2019-05-18T04:56:36.329Z,11.63
2019-05-18T04:57:37.268Z,11.59
2019-05-18T04:58:36.610Z,11.58
2019-05-18T04:59:36.284Z,11.67
2019-05-18T05:00:36.279Z,11.60
2019-05-18T05:01:36.564Z,11.74
2019-05-18T05:02:36.267Z,11.76
2019-05-18T05:03:36.397Z,11.76
2019-05-18T05:04:36.256Z,11.74
2019-05-18T05:06:36.436Z,11.85
2019-05-18T05:07:36.292Z,11.80
2019-05-18T05:08:36.684Z,11.95
2019-05-18T05:09:36.064Z,11.91
2019-05-18T05:10:36.548Z,11.86
2019-05-18T05:11:36.299Z,11.88
2019-05-18T05:12:36.504Z,11.93
2019-05-18T05:13:35.980Z,11.99
2019-05-18T05:14:35.939Z,12.05
2019-05-18T05:16:35.885Z,12.23
2019-05-18T05:17:35.866Z,12.33
2019-05-18T05:18:36.174Z,12.32
2019-05-18T05:19:35.837Z,12.33
2019-05-18T05:20:35.799Z,12.35
2019-05-18T05:21:35.805Z,12.39
2019-05-18T05:22:35.765Z,12.48
2019-05-18T05:23:35.734Z,12.53
2019-05-18T05:24:35.730Z,12.40
2019-05-18T05:25:35.693Z,12.43
2019-05-18T05:26:35.707Z,12.50
2019-05-18T05:29:35.646Z,12.75
2019-05-18T05:30:35.788Z,12.83
2019-05-18T05:31:35.573Z,12.88
2019-05-18T05:32:35.580Z,13.13
2019-05-18T05:33:35.860Z,13.64
2019-05-18T05:34:35.830Z,14.41
2019-05-18T05:35:37.705Z,15.26
2019-05-18T05:36:35.782Z,15.92
2019-05-18T05:37:35.489Z,16.12
2019-05-18T05:38:35.461Z,16.34
2019-05-18T05:39:35.437Z,16.66
2019-05-18T05:40:36.336Z,17.20
2019-05-18T05:41:35.371Z,17.78
2019-05-18T05:44:35.326Z,18.06
2019-05-18T05:45:35.305Z,18.41
2019-05-18T05:47:35.261Z,18.06
2019-05-18T05:48:35.571Z,18.43
2019-05-18T05:49:35.220Z,18.76
2019-05-18T05:50:36.721Z,19.20
2019-05-18T05:51:35.186Z,19.24
2019-05-18T05:52:35.179Z,19.75
2019-05-18T05:53:35.147Z,19.77
2019-05-18T05:54:35.146Z,19.84
2019-05-18T05:55:35.117Z,20.02
2019-05-18T05:56:35.120Z,19.71
2019-05-18T05:57:35.096Z,18.86
2019-05-18T05:58:35.076Z,19.29
2019-05-18T05:59:35.081Z,19.81
2019-05-18T06:00:35.083Z,19.59
2019-05-18T06:01:35.056Z,19.47
2019-05-18T06:02:35.226Z,19.34
2019-05-18T06:03:35.042Z,19.27
2019-05-18T06:04:35.474Z,19.29
2019-05-18T06:05:35.715Z,18.86
2019-05-18T06:06:35.688Z,18.73
2019-05-18T06:07:34.952Z,19.30
2019-05-18T06:08:34.934Z,19.39
2019-05-18T06:09:35.248Z,19.75
2019-05-18T06:10:35.126Z,19.93
2019-05-18T06:11:34.895Z,19.97
2019-05-18T06:12:35.087Z,19.70
2019-05-18T06:13:35.188Z,18.97
2019-05-18T06:15:34.846Z,18.57
2019-05-18T06:16:34.886Z,18.19
2019-05-18T06:17:34.828Z,17.82
2019-05-18T06:18:34.822Z,17.68
2019-05-18T06:19:34.800Z,17.87
2019-05-18T06:20:49.006Z,17.93
2019-05-18T06:21:34.778Z,18.19
2019-05-18T06:22:35.099Z,18.00
2019-05-18T06:23:34.801Z,17.63
2019-05-18T06:24:35.070Z,17.42
2019-05-18T06:26:24.218Z,17.75
2019-05-18T06:27:19.627Z,18.06
2019-05-18T06:28:19.647Z,18.41
2019-05-18T06:29:19.618Z,18.63
2019-05-18T06:30:19.617Z,18.52
2019-05-18T06:31:22.835Z,18.55
2019-05-18T06:32:19.572Z,18.71
2019-05-18T06:33:19.887Z,18.42
2019-05-18T06:35:19.588Z,18.24
2019-05-18T06:36:19.529Z,17.91
2019-05-18T06:37:19.539Z,17.54
2019-05-18T06:38:19.520Z,17.57
2019-05-18T06:39:20.236Z,17.41
2019-05-18T06:40:20.041Z,17.28
2019-05-18T06:41:19.495Z,17.20
2019-05-18T06:42:19.496Z,17.12
2019-05-18T06:43:19.495Z,17.44
2019-05-18T06:44:19.510Z,17.49
2019-05-18T06:45:19.486Z,17.59
2019-05-18T06:46:19.439Z,17.65
2019-05-18T06:47:19.633Z,17.79
2019-05-18T06:48:19.949Z,17.75
2019-05-18T06:49:19.466Z,17.97
2019-05-18T06:51:19.403Z,18.06
2019-05-18T06:52:19.718Z,18.23
2019-05-18T06:53:20.652Z,18.52
2019-05-18T06:58:19.553Z,19.29
2019-05-18T06:59:19.675Z,19.16
2019-05-18T07:00:19.525Z,18.76
2019-05-18T07:01:19.353Z,18.58
2019-05-18T07:02:19.523Z,18.52
2019-05-18T07:03:19.303Z,18.60
2019-05-18T07:04:20.222Z,18.63
2019-05-18T07:06:19.605Z,18.66
2019-05-18T07:07:19.285Z,18.78
2019-05-18T07:08:19.551Z,18.74
2019-05-18T07:09:19.593Z,18.46
2019-05-18T07:10:19.237Z,18.48
2019-05-18T07:11:19.951Z,18.66
2019-05-18T07:12:19.233Z,18.83
2019-05-18T07:13:19.442Z,19.16
2019-05-18T07:14:25.813Z,19.30
2019-05-18T07:15:19.645Z,19.48
2019-05-18T07:16:19.182Z,19.53
2019-05-18T07:17:19.589Z,19.53
2019-05-18T07:18:19.151Z,19.72
2019-05-18T07:19:19.873Z,19.93
2019-05-18T07:20:19.866Z,19.81
2019-05-18T07:21:22.388Z,19.79
2019-05-18T07:22:19.106Z,19.81
2019-05-18T07:23:19.133Z,19.47
2019-05-18T07:24:19.090Z,18.98
2019-05-18T07:25:19.800Z,18.88
2019-05-18T07:26:19.067Z,18.76
2019-05-18T07:27:19.056Z,18.85
2019-05-18T07:28:19.038Z,19.07
2019-05-18T07:29:19.033Z,19.09
2019-05-18T07:30:19.027Z,18.82
2019-05-18T07:31:19.009Z,18.81
2019-05-18T07:32:19.003Z,18.66
2019-05-18T07:33:18.984Z,18.74
2019-05-18T07:34:19.013Z,18.61
2019-05-18T07:35:18.959Z,18.76
2019-05-18T07:36:18.941Z,18.76
2019-05-18T07:37:18.929Z,18.79
2019-05-18T07:38:18.915Z,18.88
2019-05-18T07:39:18.901Z,18.94
2019-05-18T07:40:18.899Z,18.78
2019-05-18T07:41:19.205Z,18.86
2019-05-18T07:42:18.863Z,19.16
2019-05-18T07:43:18.897Z,19.42
2019-05-18T07:44:19.176Z,19.42
2019-05-18T07:45:18.826Z,19.52
2019-05-18T07:46:19.139Z,19.57
2019-05-18T07:47:18.816Z,19.74
2019-05-18T07:48:18.786Z,19.77
2019-05-18T07:49:19.074Z,19.77
2019-05-18T07:50:18.779Z,19.94
2019-05-18T07:51:19.052Z,20.03
2019-05-18T07:52:19.045Z,20.14
2019-05-18T07:53:18.762Z,20.21
2019-05-18T07:54:19.057Z,20.15
2019-05-18T07:55:18.896Z,20.04
2019-05-18T07:56:19.624Z,19.78
2019-05-18T07:57:18.689Z,19.64
2019-05-18T07:58:19.203Z,19.45
2019-05-18T07:59:19.933Z,19.30
2019-05-18T08:00:18.953Z,19.62
2019-05-18T08:01:19.155Z,19.84
2019-05-18T08:03:18.612Z,20.03
2019-05-18T08:04:18.602Z,20.17
2019-05-18T08:05:18.895Z,20.17
2019-05-18T08:06:19.917Z,20.21
2019-05-18T08:07:18.771Z,20.27
2019-05-18T08:08:18.565Z,20.26
2019-05-18T08:09:18.558Z,20.08
2019-05-18T08:10:18.569Z,19.92
2019-05-18T08:11:18.814Z,20.02
2019-05-18T08:12:18.522Z,20.21
2019-05-18T08:13:18.495Z,20.14
2019-05-18T08:14:18.474Z,20.32
2019-05-18T08:15:18.455Z,20.22
2019-05-18T08:16:18.449Z,20.26
2019-05-18T08:17:18.433Z,20.30
2019-05-18T08:18:18.415Z,20.29
2019-05-18T08:19:18.422Z,20.24
2019-05-18T08:20:18.387Z,20.37
2019-05-18T08:21:18.389Z,20.30
2019-05-18T08:22:18.366Z,20.44
2019-05-18T08:23:18.347Z,20.71
2019-05-18T08:24:18.334Z,20.83
2019-05-18T08:25:18.323Z,20.92
2019-05-18T08:26:18.319Z,21.10
2019-05-18T08:27:18.314Z,21.47
2019-05-18T08:28:18.279Z,21.59
2019-05-18T08:29:18.311Z,21.63
2019-05-18T08:30:18.263Z,21.75
2019-05-18T08:31:18.245Z,21.72
2019-05-18T08:32:18.234Z,21.84
2019-05-18T08:33:18.212Z,21.81
2019-05-18T08:34:18.208Z,21.80
2019-05-18T08:35:18.194Z,21.74
2019-05-18T08:36:18.175Z,21.65
2019-05-18T08:37:18.175Z,21.63
2019-05-18T08:38:18.153Z,21.59
2019-05-18T08:39:18.172Z,21.62
2019-05-18T08:40:18.125Z,21.70
2019-05-18T08:41:18.115Z,22.00
2019-05-18T08:42:18.096Z,22.14
2019-05-18T08:43:18.094Z,22.28
2019-05-18T08:44:18.084Z,22.34
2019-05-18T08:45:18.058Z,22.30
2019-05-18T08:46:18.052Z,22.14
2019-05-18T08:47:18.066Z,21.58
2019-05-18T08:48:18.025Z,21.30
2019-05-18T08:49:18.025Z,21.19
2019-05-18T08:50:18.008Z,21.40
2019-05-18T08:51:17.985Z,21.48
2019-05-18T08:52:17.977Z,21.78
2019-05-18T08:53:17.961Z,21.83
2019-05-18T08:54:17.953Z,21.84
2019-05-18T08:55:17.934Z,22.01
2019-05-18T08:56:17.922Z,22.03
2019-05-18T08:57:17.918Z,21.99
2019-05-18T08:58:17.935Z,22.36
2019-05-18T08:59:17.885Z,22.43
2019-05-18T09:00:17.884Z,22.49
2019-05-18T09:01:17.861Z,22.73
2019-05-18T09:02:17.860Z,22.67
2019-05-18T09:03:17.836Z,22.95
2019-05-18T09:04:17.834Z,23.04
2019-05-18T09:05:17.811Z,23.23
2019-05-18T09:06:17.796Z,23.44
2019-05-18T09:07:17.784Z,23.54
2019-05-18T09:08:17.778Z,23.64
2019-05-18T09:09:17.764Z,23.70
2019-05-18T09:10:17.802Z,23.86
2019-05-18T09:11:17.750Z,23.69
2019-05-18T09:12:17.733Z,23.63
2019-05-18T09:13:17.718Z,23.82
2019-05-18T09:14:17.727Z,24.07
2019-05-18T09:15:17.690Z,24.07
2019-05-18T09:16:17.678Z,24.32
2019-05-18T09:17:17.688Z,24.56
2019-05-18T09:18:17.664Z,24.56
2019-05-18T09:19:17.649Z,24.65
2019-05-18T09:20:17.633Z,24.74
2019-05-18T09:21:17.628Z,24.63
2019-05-18T09:22:23.204Z,24.86
2019-05-18T09:23:17.597Z,24.92
2019-05-18T09:24:17.587Z,24.43
2019-05-18T09:25:17.576Z,24.26
2019-05-18T09:26:17.566Z,24.07
2019-05-18T09:27:17.567Z,23.96
2019-05-18T09:28:17.556Z,23.81
2019-05-18T09:29:17.539Z,23.59
2019-05-18T09:30:17.531Z,23.88
2019-05-18T09:31:17.521Z,23.79
2019-05-18T09:32:17.505Z,23.94
2019-05-18T09:33:17.494Z,24.25
2019-05-18T09:34:17.483Z,24.41
2019-05-18T09:35:17.478Z,24.31
2019-05-18T09:36:17.470Z,24.47
2019-05-18T09:37:17.454Z,24.59
2019-05-18T09:38:17.484Z,24.75
2019-05-18T09:39:17.435Z,24.84
2019-05-18T09:40:17.437Z,24.99
2019-05-18T09:41:17.427Z,25.24
2019-05-18T09:42:17.412Z,25.37
2019-05-18T09:43:17.409Z,24.16
2019-05-18T09:44:17.389Z,24.16
2019-05-18T09:45:17.386Z,24.51
2019-05-18T09:46:17.370Z,24.92
2019-05-18T09:47:17.372Z,25.26
2019-05-18T09:48:17.352Z,25.26
2019-05-18T09:49:17.345Z,25.18
2019-05-18T09:50:17.334Z,25.03
2019-05-18T09:51:17.353Z,25.21
2019-05-18T09:52:17.327Z,25.41
2019-05-18T09:53:17.317Z,25.85
2019-05-18T09:54:17.299Z,25.81
2019-05-18T09:55:17.299Z,25.80
2019-05-18T09:56:17.289Z,25.54
2019-05-18T09:57:17.274Z,25.48
2019-05-18T09:58:17.277Z,25.83
2019-05-18T09:59:17.256Z,25.91
2019-05-18T10:00:17.398Z,25.40
2019-05-18T10:01:17.249Z,25.52
2019-05-18T10:02:17.239Z,25.61
2019-05-18T10:03:17.238Z,25.88
2019-05-18T10:04:17.219Z,26.37
2019-05-18T10:05:17.213Z,26.55
2019-05-18T10:06:17.202Z,26.53
2019-05-18T10:07:17.197Z,26.86
2019-05-18T10:08:17.194Z,26.92
2019-05-18T10:09:17.182Z,26.96
2019-05-18T10:10:17.176Z,27.23
2019-05-18T10:11:17.194Z,26.22
2019-05-18T10:12:17.164Z,26.36
2019-05-18T10:13:17.180Z,26.29
2019-05-18T10:14:17.159Z,26.22
2019-05-18T10:15:17.754Z,26.42
2019-05-18T10:16:17.145Z,26.33
2019-05-18T10:17:17.139Z,26.39
2019-05-18T10:18:17.143Z,26.39
2019-05-18T10:19:17.134Z,26.16
2019-05-18T10:20:17.127Z,26.30
2019-05-18T10:21:17.147Z,26.79
2019-05-18T10:23:36.032Z,27.38
2019-05-18T10:24:36.012Z,27.57
2019-05-18T10:25:36.023Z,27.83
2019-05-18T10:26:36.008Z,27.98
2019-05-18T10:27:36.008Z,27.98
2019-05-18T10:28:36.002Z,27.93
2019-05-18T10:29:35.995Z,28.09
2019-05-18T10:30:36.007Z,28.28
2019-05-18T10:31:35.999Z,27.55
2019-05-18T10:32:35.990Z,27.23
2019-05-18T10:33:35.998Z,27.71
2019-05-18T10:34:35.995Z,28.10
2019-05-18T10:35:35.993Z,27.83
2019-05-18T10:36:36.013Z,27.57
2019-05-18T10:37:35.985Z,26.96
2019-05-18T10:38:35.990Z,26.10
2019-05-18T10:39:38.695Z,26.10
2019-05-18T10:40:35.986Z,26.07
2019-05-18T10:41:35.978Z,26.18
2019-05-18T10:42:35.983Z,25.56
2019-05-18T10:43:35.986Z,25.55
2019-05-18T10:44:36.124Z,25.86
2019-05-18T10:45:35.972Z,25.77
2019-05-18T10:46:35.970Z,25.09
2019-05-18T10:47:35.977Z,25.22
2019-05-18T10:48:35.970Z,24.89
2019-05-18T10:49:35.972Z,24.68
2019-05-18T10:50:35.959Z,24.63
2019-05-18T10:52:35.772Z,24.13
2019-05-18T10:54:50.694Z,23.82
2019-05-18T10:56:23.890Z,23.73
2019-05-18T10:56:50.675Z,23.88
2019-05-18T10:58:23.897Z,24.04
2019-05-18T10:58:50.669Z,23.91
2019-05-18T10:59:50.665Z,23.56
2019-05-18T11:00:50.655Z,23.91
2019-05-18T11:01:51.854Z,23.88
2019-05-18T11:02:50.742Z,23.89
2019-05-18T11:03:50.641Z,24.09
2019-05-18T11:04:50.617Z,24.34
2019-05-18T11:06:23.823Z,24.43
2019-05-18T11:06:50.606Z,24.22
2019-05-18T11:07:50.599Z,24.24
2019-05-18T11:09:23.829Z,23.99
2019-05-18T11:09:50.586Z,24.01
2019-05-18T11:10:50.585Z,24.14
2019-05-18T11:12:23.781Z,24.38
2019-05-18T11:12:50.559Z,24.36
2019-05-18T11:14:23.753Z,24.36
2019-05-18T11:14:50.552Z,24.41
2019-05-18T11:15:50.536Z,24.25
2019-05-18T11:16:50.521Z,24.16
2019-05-18T11:17:50.528Z,24.32
2019-05-18T11:18:50.510Z,24.11
2019-05-18T11:19:50.491Z,23.62
2019-05-18T11:20:50.509Z,23.44
2019-05-18T11:21:50.486Z,23.62
2019-05-18T11:22:50.471Z,23.67
2019-05-18T11:23:50.460Z,24.37
2019-05-18T11:24:50.442Z,25.06
2019-05-18T11:25:50.458Z,24.69
2019-05-18T11:26:50.421Z,24.61
2019-05-18T11:27:50.418Z,25.16
2019-05-18T11:28:50.408Z,25.51
2019-05-18T11:29:50.398Z,26.24
2019-05-18T11:30:50.397Z,26.24
2019-05-18T11:31:50.383Z,25.89
2019-05-18T11:32:50.377Z,26.06
2019-05-18T11:33:50.375Z,26.07
2019-05-18T11:34:50.367Z,26.01
2019-05-18T11:35:50.362Z,26.06
2019-05-18T11:36:50.355Z,26.39
2019-05-18T11:37:50.354Z,26.23
2019-05-18T11:38:50.337Z,26.41
2019-05-18T11:39:50.340Z,26.74
2019-05-18T11:40:50.326Z,26.81
2019-05-18T11:41:50.329Z,26.74
2019-05-18T11:42:50.316Z,26.96
2019-05-18T11:43:50.326Z,26.76
2019-05-18T11:44:50.305Z,26.85
2019-05-18T11:45:50.332Z,27.15
2019-05-18T11:46:50.301Z,27.26
2019-05-18T11:47:50.285Z,27.43
2019-05-18T11:48:50.279Z,26.92
2019-05-18T11:49:50.297Z,26.76
2019-05-18T11:50:50.272Z,26.15
2019-05-18T11:51:50.261Z,26.01
2019-05-18T11:52:50.255Z,25.73
2019-05-18T11:53:57.837Z,25.73
2019-05-18T11:54:50.239Z,25.22
2019-05-18T11:55:50.234Z,24.77
2019-05-18T11:56:50.233Z,24.82
2019-05-18T11:57:50.222Z,24.62
2019-05-18T11:58:50.210Z,24.84
2019-05-18T11:59:50.250Z,24.46
2019-05-18T12:00:50.210Z,24.44
2019-05-18T12:01:50.185Z,24.55
2019-05-18T12:02:50.179Z,24.55
2019-05-18T12:03:50.173Z,24.61
2019-05-18T12:04:50.156Z,24.66
2019-05-18T12:05:50.151Z,24.82
2019-05-18T12:06:50.137Z,24.82
2019-05-18T12:07:50.126Z,24.62
2019-05-18T12:08:50.114Z,24.62
2019-05-18T12:09:50.108Z,24.77
2019-05-18T12:10:50.093Z,24.21
2019-05-18T12:11:50.084Z,24.03
2019-05-18T12:12:50.089Z,23.85
2019-05-18T12:13:50.071Z,23.85
2019-05-18T12:14:50.052Z,23.81
2019-05-18T12:15:50.049Z,23.86
2019-05-18T12:16:50.041Z,24.07
2019-05-18T12:17:50.026Z,24.32
2019-05-18T12:18:50.097Z,24.41
2019-05-18T12:19:49.999Z,24.43
2019-05-18T12:20:49.991Z,24.31
2019-05-18T12:21:49.977Z,24.44
2019-05-18T12:22:49.969Z,24.56
2019-05-18T12:23:49.954Z,24.62
2019-05-18T12:24:49.944Z,24.78
2019-05-18T12:25:50.819Z,24.62
2019-05-18T12:26:49.957Z,24.71
2019-05-18T12:27:49.959Z,24.74
2019-05-18T12:28:49.898Z,24.61
2019-05-18T12:29:49.907Z,24.53
2019-05-18T12:30:49.875Z,24.36
2019-05-18T12:31:49.864Z,24.38
2019-05-18T12:32:49.856Z,24.43
2019-05-18T12:33:49.860Z,24.36
2019-05-18T12:34:49.831Z,24.53
2019-05-18T12:35:49.822Z,24.41
2019-05-18T12:36:49.823Z,24.59
2019-05-18T12:37:49.804Z,24.62
2019-05-18T12:38:49.786Z,24.53
2019-05-18T12:39:49.774Z,24.66
2019-05-18T12:40:49.762Z,24.59
2019-05-18T12:41:49.751Z,24.77
2019-05-18T12:42:49.750Z,24.86
2019-05-18T12:43:49.751Z,24.88
2019-05-18T12:44:49.730Z,25.11
2019-05-18T12:45:49.729Z,25.16
2019-05-18T12:46:49.701Z,25.15
2019-05-18T12:47:49.698Z,25.06
2019-05-18T12:48:49.676Z,24.85
2019-05-18T12:49:49.684Z,24.88
2019-05-18T12:50:49.654Z,24.82
2019-05-18T12:51:49.646Z,24.82
2019-05-18T12:52:49.635Z,25.07
2019-05-18T12:53:49.613Z,25.16
2019-05-18T12:54:49.609Z,25.36
2019-05-18T12:55:49.596Z,25.52
2019-05-18T12:56:49.586Z,25.61
2019-05-18T12:57:49.587Z,25.39
2019-05-18T12:58:49.576Z,24.94
2019-05-18T12:59:49.560Z,24.81
2019-05-18T13:00:49.534Z,24.63
2019-05-18T13:01:49.528Z,24.65
2019-05-18T13:02:49.518Z,24.56
2019-05-18T13:03:49.522Z,24.48
2019-05-18T13:04:49.494Z,24.48
2019-05-18T13:05:49.487Z,24.48
2019-05-18T13:06:49.463Z,24.43
2019-05-18T13:07:49.460Z,24.46
2019-05-18T13:08:49.457Z,24.51
2019-05-18T13:09:49.433Z,24.46
2019-05-18T13:10:49.414Z,24.32
2019-05-18T13:11:49.411Z,24.14
2019-05-18T13:12:49.397Z,24.28
2019-05-18T13:13:49.387Z,24.16